Historyczne dane pomiarowe

Dodano dane terminowe – wersja testowa.

Dane z okresu 1951-2019

Wersja bazy: 1.34 [2019-03-16, lista zmian], aktualizacja planowana na 2019-04-15

Dane meteo z obszaru Polski uzyskane na podstawie danych udostępnionych przez Instytut Meteorologii i Gospodarki Wodnej – Państwowy Instytut Badawczy.

 

Wybierz Datę:    

       

TemperaturaWilgotnośćZachmurzenieWiatrCiśnienieWidzialnośćZjawiska
 Data    tng td wb rh cc ccl cl cm ch dir g1 g2 mslp ppp      
1999-08-03 00:00:00 12.4--- 10.6 11.489wxwxwx0wx--1017.4 992.7 0.0---wx
1999-08-03 01:00:00 11.6--- 10.2 10.891wxwxwx2wx--1017.5 992.7----wx
1999-08-03 02:00:00 11.0--- 9.5 10.291wxwxwx1wx--1017.6 992.7----wx
1999-08-03 03:00:00 10.2--- 9.5 9.895wxwxwx1wx--1017.5 992.6----wx
1999-08-03 04:00:00 10.2--- 9.5 9.895wxwxwx1wx--1017.6 992.7----wx
1999-08-03 05:00:00 11.6--- 10.5 11.093wxwxwx1wx--1017.6 992.8----wx
1999-08-03 06:00:00 14.0--- 11.9 12.887wxwxwx1wx--1017.5 992.9 0.0---wx
1999-08-03 07:00:00 18.2--- 12.3 14.768wxwx0wx--1017.0 992.8----wx
1999-08-03 08:00:00 20.4--- 11.8 15.358wxwxwxwx1wx--1016.7 992.7----wx
1999-08-03 09:00:00 21.8--- 12.7 16.356wxwxwx2wx--1016.5 992.6----wx
1999-08-03 10:00:00 22.8--- 12.4 16.552wxwxwx2wx--1016.2 992.4----wx
1999-08-03 11:00:00 22.1--- 10.9 15.549wxwxwxwx2wx--1016.2 992.3----wx
1999-08-03 12:00:00 22.5--- 11.0 15.748wxwxwxwx3wx--1016.0 992.1 0.0---wx
1999-08-03 13:00:00 22.0--- 10.6 15.348wxwxwxwx3wx--1016.0 992.1----wx
1999-08-03 14:00:00 22.6--- 10.1 15.345wxwxwxwx2wx--1015.6 991.8----wx
1999-08-03 15:00:00 23.2--- 9.6 15.342wxwxwxwx3wx--1015.6 991.8----wx
1999-08-03 16:00:00 23.6--- 9.4 15.441wxwxwxwx2wx--1015.7 991.9----wx
1999-08-03 17:00:00 22.0--- 10.6 15.348wxwxwxwx1wx--1015.9 992.0----wx
1999-08-03 18:00:00 21.2--- 10.2 14.849wxwxwxwx1wx--1016.0 992.0 0.0---wx
1999-08-03 19:00:00 17.6--- 11.2 13.966wxwxwx2wx--1016.5 992.2----wx
1999-08-03 20:00:00 14.6--- 10.7 12.478wxwxwx1wx--1016.6 992.1----wx
1999-08-03 21:00:00 12.7--- 10.2 11.385wxwxwx2wx--1016.9 992.2----wx
1999-08-03 22:00:00 11.8--- 9.8 10.788wxwxwx3wx--1017.2 992.4----wx
1999-08-03 23:00:00 10.9--- 9.2 10.089wxwxwx1wx--1017.1 992.3----wx

 

Źródłem pochodzenia danych jest Instytut Meteorologii i Gospodarki Wodnej – Państwowy Instytut Badawczy. Dane Instytutu Meteorologii i Gospodarki Wodnej – Państwowego Instytutu Badawczego zostały przetworzone.

Dane źródłowe można odnaleźć na stronie https://dane.imgw.pl